createdAt,value
2018-07-10T00:01:25.267Z,3.40
2018-07-10T00:07:41.819Z,3.47
2018-07-10T00:11:45.221Z,3.40
2018-07-10T00:15:47.513Z,3.33
2018-07-10T00:19:50.445Z,5.17
2018-07-10T00:23:52.805Z,4.27
2018-07-10T00:27:55.189Z,3.43
2018-07-10T00:31:57.469Z,3.97
2018-07-10T00:35:59.707Z,4.00
2018-07-10T00:40:02.928Z,4.60
2018-07-10T00:44:05.932Z,3.83
2018-07-10T00:48:08.564Z,4.20
2018-07-10T00:52:10.953Z,4.73
2018-07-10T00:56:13.481Z,4.37
2018-07-10T01:00:25.836Z,6.63
2018-07-10T01:04:28.061Z,5.80
2018-07-10T01:08:30.353Z,6.73
2018-07-10T01:12:32.655Z,5.53
2018-07-10T01:16:36.182Z,6.30
2018-07-10T01:20:38.332Z,8.17
2018-07-10T01:24:40.566Z,7.83
2018-07-10T01:28:42.798Z,7.27
2018-07-10T01:32:45.071Z,8.40
2018-07-10T01:36:47.367Z,8.70
2018-07-10T01:40:49.985Z,8.17
2018-07-10T01:44:52.468Z,8.73
2018-07-10T01:48:54.873Z,8.50
2018-07-10T01:52:57.122Z,8.20
2018-07-10T01:56:59.388Z,8.33
2018-07-10T02:01:01.629Z,7.20
2018-07-10T02:05:03.888Z,8.03
2018-07-10T02:09:06.095Z,8.60
2018-07-10T02:13:08.291Z,8.40
2018-07-10T02:17:10.458Z,8.37
2018-07-10T02:21:12.747Z,9.13
2018-07-10T02:25:15.043Z,10.47
2018-07-10T02:29:18.311Z,9.03
2018-07-10T02:33:20.600Z,9.87
2018-07-10T02:37:22.848Z,9.50
2018-07-10T02:41:25.128Z,8.23
2018-07-10T02:45:27.470Z,7.50
2018-07-10T02:49:29.848Z,8.70
2018-07-10T02:53:32.958Z,9.10
2018-07-10T02:57:35.526Z,9.77
2018-07-10T03:01:37.810Z,8.53
2018-07-10T03:05:40.106Z,8.83
2018-07-10T03:09:43.284Z,8.53
2018-07-10T03:13:45.597Z,8.80
2018-07-10T03:17:48.150Z,9.03
2018-07-10T03:21:50.394Z,10.73
2018-07-10T03:25:52.607Z,11.20
2018-07-10T03:29:54.935Z,11.73
2018-07-10T03:33:57.191Z,15.27
2018-07-10T03:37:59.743Z,15.60
2018-07-10T03:42:02.563Z,16.80
2018-07-10T03:46:05.015Z,9.93
2018-07-10T03:50:07.498Z,6.00
2018-07-10T03:54:09.777Z,4.73
2018-07-10T03:58:12.168Z,3.53
2018-07-10T04:02:15.273Z,3.50
2018-07-10T04:06:17.584Z,3.90
2018-07-10T04:10:31.533Z,3.57
2018-07-10T04:14:33.999Z,4.47
2018-07-10T04:18:36.315Z,4.40
2018-07-10T04:22:39.660Z,4.23
2018-07-10T04:26:50.810Z,4.60
2018-07-10T04:32:01.571Z,4.40
2018-07-10T04:36:03.884Z,4.37
2018-07-10T04:40:06.083Z,3.70
2018-07-10T04:44:10.501Z,4.40
2018-07-10T04:48:20.348Z,4.77
2018-07-10T04:52:26.559Z,3.57
2018-07-10T04:56:29.335Z,4.50
2018-07-10T05:00:33.103Z,4.10
2018-07-10T05:04:35.396Z,4.00
2018-07-10T05:08:37.741Z,3.77
2018-07-10T05:12:43.089Z,3.87
2018-07-10T05:16:45.431Z,3.70
2018-07-10T05:20:47.751Z,4.13
2018-07-10T05:24:50.957Z,4.17
2018-07-10T05:28:53.638Z,4.10
2018-07-10T05:32:55.997Z,4.30
2018-07-10T05:36:58.325Z,4.70
2018-07-10T05:41:00.672Z,4.07
2018-07-10T05:45:03.367Z,4.67
2018-07-10T05:49:06.082Z,3.80
2018-07-10T05:53:09.349Z,4.40
2018-07-10T05:57:11.723Z,3.60
2018-07-10T06:01:14.127Z,3.70
2018-07-10T06:05:16.463Z,4.20
2018-07-10T06:09:18.670Z,3.50
2018-07-10T06:13:21.080Z,3.37
2018-07-10T06:17:23.560Z,2.63
2018-07-10T06:21:39.063Z,3.57
2018-07-10T06:25:41.566Z,2.87
2018-07-10T06:29:52.022Z,3.00
2018-07-10T06:34:01.012Z,3.33
2018-07-10T06:38:05.784Z,2.13
2018-07-10T06:42:10.324Z,1.80
2018-07-10T06:46:12.559Z,2.07
2018-07-10T06:50:16.399Z,2.53
2018-07-10T06:54:18.696Z,1.90
2018-07-10T06:58:22.247Z,1.70
2018-07-10T07:02:24.872Z,1.40
2018-07-10T07:06:27.139Z,1.33
2018-07-10T07:10:29.404Z,1.50
2018-07-10T07:14:31.703Z,0.83
2018-07-10T07:18:34.099Z,1.40
2018-07-10T07:22:36.356Z,1.90
2018-07-10T07:26:38.645Z,1.27
2018-07-10T07:30:40.874Z,1.57
2018-07-10T07:34:43.138Z,1.20
2018-07-10T07:38:45.381Z,0.90
2018-07-10T07:42:47.664Z,1.00
2018-07-10T07:46:49.960Z,0.60
2018-07-10T07:50:52.261Z,0.93
2018-07-10T07:54:55.044Z,0.70
2018-07-10T07:58:57.293Z,0.80
2018-07-10T08:02:59.531Z,1.00
2018-07-10T08:07:02.027Z,0.90
2018-07-10T08:11:04.551Z,1.10
2018-07-10T08:15:06.803Z,0.93
2018-07-10T08:19:09.316Z,1.10
2018-07-10T08:23:11.493Z,1.37
2018-07-10T08:27:14.119Z,1.47
2018-07-10T08:31:16.375Z,1.60
2018-07-10T08:35:18.652Z,1.73
2018-07-10T08:39:21.012Z,1.30
2018-07-10T08:43:23.362Z,1.50
2018-07-10T08:47:25.630Z,1.20
2018-07-10T08:51:27.959Z,1.87
2018-07-10T08:55:30.392Z,1.30
2018-07-10T08:59:33.317Z,2.00
2018-07-10T09:03:35.563Z,1.70
2018-07-10T09:07:37.799Z,1.80
2018-07-10T09:11:40.834Z,1.70
2018-07-10T09:15:43.263Z,2.10
2018-07-10T09:19:45.539Z,2.00
2018-07-10T09:23:47.771Z,1.60
2018-07-10T09:27:51.108Z,2.87
2018-07-10T09:31:53.359Z,2.10
2018-07-10T09:35:55.644Z,2.40
2018-07-10T09:40:03.572Z,2.87
2018-07-10T09:44:05.842Z,2.90
2018-07-10T09:48:09.145Z,3.00
2018-07-10T09:52:11.454Z,3.00
2018-07-10T09:56:13.760Z,3.20
2018-07-10T10:00:20.830Z,3.57
2018-07-10T10:04:23.126Z,3.60
2018-07-10T10:08:25.436Z,3.93
2018-07-10T10:12:27.901Z,3.33
2018-07-10T10:16:30.171Z,3.13
2018-07-10T10:20:33.539Z,4.27
2018-07-10T10:24:35.858Z,3.50
2018-07-10T10:28:38.388Z,3.37
2018-07-10T10:32:40.837Z,3.20
2018-07-10T10:36:43.120Z,2.80
2018-07-10T10:40:46.669Z,2.57
2018-07-10T10:44:51.212Z,2.80
2018-07-10T10:48:53.503Z,3.47
2018-07-10T10:52:55.789Z,3.17
2018-07-10T10:56:58.039Z,2.43
2018-07-10T11:01:00.899Z,2.17
2018-07-10T11:05:03.947Z,2.33
2018-07-10T11:09:06.279Z,2.70
2018-07-10T11:13:08.692Z,2.33
2018-07-10T11:17:14.349Z,3.90
2018-07-10T11:22:20.157Z,2.57
2018-07-10T11:26:56.859Z,1.90
2018-07-10T11:30:59.129Z,2.03
2018-07-10T11:35:01.384Z,2.70
2018-07-10T11:39:07.617Z,1.93
2018-07-10T11:43:10.706Z,1.93
2018-07-10T11:47:12.959Z,3.23
2018-07-10T11:51:15.236Z,1.63
2018-07-10T11:55:17.670Z,1.80
2018-07-10T11:59:19.932Z,2.27
2018-07-10T12:03:22.093Z,2.33
2018-07-10T12:07:24.340Z,2.00
2018-07-10T12:11:29.642Z,2.50
2018-07-10T12:15:31.879Z,2.90
2018-07-10T12:19:34.129Z,3.20
2018-07-10T12:23:36.407Z,2.23
2018-07-10T12:27:38.678Z,2.13
2018-07-10T12:31:41.259Z,2.17
2018-07-10T12:35:43.632Z,2.67
2018-07-10T12:39:45.930Z,4.63
2018-07-10T12:43:48.184Z,2.67
2018-07-10T12:47:50.567Z,1.70
2018-07-10T12:51:53.133Z,1.87
2018-07-10T12:55:57.175Z,1.90
2018-07-10T13:00:00.763Z,1.90
2018-07-10T13:05:36.560Z,1.90
2018-07-10T13:09:38.993Z,2.00
2018-07-10T13:13:41.259Z,3.20
2018-07-10T13:17:45.350Z,1.90
2018-07-10T13:21:47.677Z,2.30
2018-07-10T13:25:50.040Z,2.00
2018-07-10T13:29:52.353Z,1.97
2018-07-10T13:33:54.753Z,2.73
2018-07-10T13:37:57.111Z,2.00
2018-07-10T13:42:00.240Z,2.40
2018-07-10T13:46:02.630Z,3.17
2018-07-10T13:50:04.991Z,2.97
2018-07-10T13:54:07.268Z,3.17
2018-07-10T13:58:14.975Z,3.97
2018-07-10T14:02:17.311Z,4.47
2018-07-10T14:06:20.378Z,4.87
2018-07-10T14:10:23.493Z,7.57
2018-07-10T14:14:25.791Z,3.47
2018-07-10T14:18:28.520Z,3.70
2018-07-10T14:22:31.206Z,3.63
2018-07-10T14:26:33.461Z,3.60
2018-07-10T14:30:36.226Z,3.60
2018-07-10T14:34:38.552Z,3.17
2018-07-10T14:38:41.251Z,2.90
2018-07-10T14:44:13.041Z,3.10
2018-07-10T14:48:15.335Z,3.10
2018-07-10T14:52:17.665Z,3.33
2018-07-10T14:56:19.994Z,2.27
2018-07-10T15:00:22.475Z,2.80
2018-07-10T15:04:24.768Z,2.60
2018-07-10T15:08:27.078Z,2.47
2018-07-10T15:12:30.182Z,2.80
2018-07-10T15:16:38.046Z,3.07
2018-07-10T15:20:40.339Z,2.50
2018-07-10T15:24:42.694Z,2.07
2018-07-10T15:28:44.963Z,3.23
2018-07-10T15:32:47.436Z,4.67
2018-07-10T15:36:49.751Z,3.13
2018-07-10T15:40:52.011Z,2.30
2018-07-10T15:44:54.199Z,2.37
2018-07-10T15:48:56.461Z,2.83
2018-07-10T15:52:58.752Z,2.90
2018-07-10T15:57:01.065Z,2.50
2018-07-10T16:01:04.361Z,2.97
2018-07-10T16:05:06.718Z,2.47
2018-07-10T16:09:17.743Z,3.20
2018-07-10T16:13:20.391Z,3.53
2018-07-10T16:17:24.822Z,2.93
2018-07-10T16:22:00.436Z,3.00
2018-07-10T16:26:14.162Z,3.10
2018-07-10T16:30:23.260Z,2.87
2018-07-10T16:34:25.764Z,3.03
2018-07-10T16:38:28.043Z,3.70
2018-07-10T16:42:35.999Z,3.23
2018-07-10T16:46:39.675Z,2.67
2018-07-10T16:50:44.779Z,3.37
2018-07-10T16:54:47.398Z,3.27
2018-07-10T16:58:49.678Z,3.53
2018-07-10T17:02:53.360Z,3.67
2018-07-10T17:06:55.616Z,5.20
2018-07-10T17:10:58.496Z,5.43
2018-07-10T17:15:00.875Z,4.47
2018-07-10T17:19:03.268Z,4.67
2018-07-10T17:23:05.569Z,5.50
2018-07-10T17:27:07.831Z,4.30
2018-07-10T17:31:10.497Z,4.70
2018-07-10T17:35:12.878Z,4.47
2018-07-10T17:39:15.245Z,4.70
2018-07-10T17:43:17.592Z,4.07
2018-07-10T17:47:19.851Z,5.23
2018-07-10T17:51:22.266Z,4.50
2018-07-10T17:55:24.555Z,4.80
2018-07-10T17:59:26.826Z,4.37
2018-07-10T18:03:29.100Z,4.30
2018-07-10T18:07:31.365Z,4.10
2018-07-10T18:11:33.648Z,3.97
2018-07-10T18:15:35.943Z,4.57
2018-07-10T18:19:38.208Z,4.20
2018-07-10T18:23:40.454Z,4.27
2018-07-10T18:27:42.711Z,4.20
2018-07-10T18:31:45.188Z,4.57
2018-07-10T18:35:47.456Z,4.30
2018-07-10T18:39:49.718Z,4.97
2018-07-10T18:43:51.902Z,4.23
2018-07-10T18:47:54.218Z,4.00
2018-07-10T18:51:56.600Z,4.40
2018-07-10T18:55:58.900Z,5.43
2018-07-10T19:00:03.691Z,4.10
2018-07-10T19:04:06.309Z,3.50
2018-07-10T19:08:08.627Z,4.43
2018-07-10T19:12:12.016Z,3.63
2018-07-10T19:16:14.240Z,5.13
2018-07-10T19:20:16.560Z,5.00
2018-07-10T19:24:19.146Z,7.63
2018-07-10T19:28:21.450Z,7.83
2018-07-10T19:32:24.443Z,8.07
2018-07-10T19:36:26.667Z,10.97
2018-07-10T19:40:29.101Z,9.87
2018-07-10T19:44:31.364Z,9.97
2018-07-10T19:48:34.163Z,10.90
2018-07-10T19:52:36.704Z,11.97
2018-07-10T19:56:39.280Z,12.10
2018-07-10T20:00:45.319Z,13.43
2018-07-10T20:05:04.858Z,15.70
2018-07-10T20:09:12.907Z,14.83
2018-07-10T20:13:27.414Z,15.17
2018-07-10T20:17:32.497Z,13.87
2018-07-10T20:21:41.875Z,12.80
2018-07-10T20:26:03.574Z,13.23
2018-07-10T20:31:16.707Z,9.37
2018-07-10T20:35:27.873Z,10.00
2018-07-10T20:39:33.450Z,7.97
2018-07-10T20:43:44.982Z,9.63
2018-07-10T20:47:52.371Z,12.27
2018-07-10T20:51:59.408Z,10.00
2018-07-10T20:57:11.578Z,12.80
2018-07-10T21:01:13.859Z,12.17
2018-07-10T21:05:28.020Z,11.00
2018-07-10T21:09:36.653Z,12.37
2018-07-10T21:13:49.347Z,13.00
2018-07-10T21:18:04.267Z,13.53
2018-07-10T21:22:16.899Z,15.80
2018-07-10T21:26:38.667Z,13.83
2018-07-10T21:30:52.099Z,14.70
2018-07-10T21:34:54.486Z,16.07
2018-07-10T21:39:06.983Z,15.10
2018-07-10T21:43:14.989Z,13.10
2018-07-10T21:48:26.368Z,14.07
2018-07-10T21:52:28.858Z,12.80
2018-07-10T21:56:31.164Z,13.20
2018-07-10T22:00:46.512Z,14.20
2018-07-10T22:04:51.201Z,17.80
2018-07-10T22:08:53.449Z,16.87
2018-07-10T22:12:55.704Z,16.70
2018-07-10T22:16:57.985Z,20.73
2018-07-10T22:21:00.196Z,19.97
2018-07-10T22:25:04.371Z,23.60
2018-07-10T22:29:06.604Z,26.50
2018-07-10T22:33:08.830Z,27.47
2018-07-10T22:37:11.875Z,30.73
2018-07-10T22:41:14.907Z,30.73
2018-07-10T22:45:17.830Z,30.43
2018-07-10T22:49:20.015Z,33.03
2018-07-10T22:53:22.268Z,31.83
2018-07-10T22:57:24.496Z,37.47
2018-07-10T23:01:26.732Z,33.77
2018-07-10T23:05:28.966Z,34.10
2018-07-10T23:09:31.971Z,36.23
2018-07-10T23:13:38.141Z,35.50
2018-07-10T23:17:40.453Z,31.90
2018-07-10T23:21:42.769Z,36.80
2018-07-10T23:25:44.956Z,37.60
2018-07-10T23:29:47.188Z,32.03
2018-07-10T23:33:55.242Z,28.47
2018-07-10T23:38:02.024Z,34.87
2018-07-10T23:42:08.566Z,36.40
2018-07-10T23:46:21.135Z,37.20
2018-07-10T23:50:26.858Z,41.30
2018-07-10T23:54:29.239Z,40.83
2018-07-10T23:58:31.722Z,39.07
